Al Udeid, Qatar

7:42 AM AST on November 23, 2014 (GMT +0300)
Al Waab | Change Station
CLOSE
Current Station
Personal Weather Station
Location: Doha, DOHA
Elevation: 69 ft
Nearby Weather Stations

Elev 69 ft 25.26 °N, 51.46 °E | Updated 19 minutes ago

Haze
Haze
75.7 °F
Feels Like 76 °F
N
2.2
Wind Variable Wind from NW
Gusts 3.1 mph

Today
High -- | Low -- °F
--% Chance of Precip.
Yesterday
High -- | Low -- °F
Precip. -- in
5:57 AM 4:44 PM
New Moon, 1% visible
Pressure 29.98 in
Visibility 2.5 miles
Clouds
Heat Index 76 °F
Dew Point 72 °F
Humidity 87%
Rainfall 0.00 in
Snow Depth Not available.
UV Not available.
Pollen Not available.
Air Quality Not available.
Flu Activity Not available.
METAR OTBD 230430Z 22005KT 180V250 4000 HZ NSC 24/21 Q1015 NOSIG

More Conditions Fewer Conditions

Pressure 29.98 in
Visibility 2.5 miles
Clouds
Heat Index 76 °F
Dew Point 72 °F
Humidity 87%
Rainfall 0.00 in
Snow Depth Not available.
UV Not available.
Pollen Not available.
Air Quality Not available.
Flu Activity Not available.
METAR OTBD 230430Z 22005KT 180V250 4000 HZ NSC 24/21 Q1015 NOSIG

More Conditions Fewer Conditions

10-Day Weather Forecast

Almanac

Astronomy

Nov. 23, 2014 Rise Set
Actual Time
Civil Twilight
Nautical Twilight
Astronomical Twilight
Moon
Length of Visible Light
Length of Day
Tomorrow will be .
, % of the Moon is Illuminated

Today's Extremes

Country Highs Country Lows

Community

WunderPhotos

Upload Photos

1,773,003 photos uploaded!

WunderBlogs® & News

Nearby

Air Quality

  Air Quality AQ Index Pollutant
Not available.

Snow Depth

Station Depth Elevation

Earthquake Activity

City Distance Mag. Time & Date
Minimum magnitude displayed is 2.5.

Coastal Water Temperatures

Place Temperature

Nearby Weather Stations